createdAt,value
2017-11-12T00:00:30.502Z,12.30
2017-11-12T00:02:58.821Z,13.00
2017-11-12T00:05:27.897Z,14.30
2017-11-12T00:07:56.212Z,13.47
2017-11-12T00:10:25.294Z,14.23
2017-11-12T00:12:53.601Z,12.50
2017-11-12T00:15:21.887Z,12.13
2017-11-12T00:17:50.967Z,13.47
2017-11-12T00:20:19.268Z,10.60
2017-11-12T00:22:47.590Z,12.23
2017-11-12T00:25:15.900Z,11.27
2017-11-12T00:27:44.226Z,13.20
2017-11-12T00:30:12.527Z,11.60
2017-11-12T00:32:41.603Z,11.10
2017-11-12T00:35:09.903Z,11.90
2017-11-12T00:37:38.978Z,11.70
2017-11-12T00:40:07.274Z,13.10
2017-11-12T00:42:36.353Z,14.10
2017-11-12T00:45:04.669Z,13.07
2017-11-12T00:47:32.972Z,14.97
2017-11-12T00:50:01.287Z,14.60
2017-11-12T00:52:29.612Z,15.30
2017-11-12T00:54:57.911Z,17.40
2017-11-12T00:57:26.229Z,18.40
2017-11-12T00:59:54.537Z,16.20
2017-11-12T01:02:22.860Z,16.63
2017-11-12T01:04:51.158Z,16.07
2017-11-12T01:07:19.474Z,19.10
2017-11-12T01:09:47.793Z,17.97
2017-11-12T01:12:16.107Z,19.23
2017-11-12T01:14:45.174Z,17.97
2017-11-12T01:17:13.494Z,23.60
2017-11-12T01:19:41.798Z,21.13
2017-11-12T01:22:10.143Z,17.20
2017-11-12T01:24:38.454Z,17.60
2017-11-12T01:27:06.768Z,17.90
2017-11-12T01:29:35.082Z,15.50
2017-11-12T01:32:03.383Z,15.37
2017-11-12T01:34:31.686Z,15.80
2017-11-12T01:36:59.983Z,16.23
2017-11-12T01:39:29.082Z,16.40
2017-11-12T01:41:58.146Z,15.50
2017-11-12T01:44:26.454Z,14.40
2017-11-12T01:46:55.538Z,14.83
2017-11-12T01:49:23.931Z,12.57
2017-11-12T01:51:53.008Z,14.17
2017-11-12T01:54:21.319Z,15.87
2017-11-12T01:56:49.617Z,13.47
2017-11-12T01:59:17.938Z,16.33
2017-11-12T02:01:46.251Z,12.77
2017-11-12T02:04:14.553Z,13.10
2017-11-12T02:06:42.842Z,13.30
2017-11-12T02:09:11.159Z,12.90
2017-11-12T02:11:40.227Z,15.80
2017-11-12T02:14:08.558Z,14.70
2017-11-12T02:16:36.867Z,13.87
2017-11-12T02:19:05.170Z,15.00
2017-11-12T02:21:33.485Z,14.17
2017-11-12T02:24:01.799Z,14.43
2017-11-12T02:26:30.752Z,14.60
2017-11-12T02:28:59.072Z,14.67
2017-11-12T02:31:28.447Z,12.93
2017-11-12T02:33:56.763Z,13.27
2017-11-12T02:36:25.826Z,12.60
2017-11-12T02:38:54.141Z,14.40
2017-11-12T02:41:22.460Z,14.37
2017-11-12T02:43:50.769Z,15.40
2017-11-12T02:46:19.076Z,14.87
2017-11-12T02:48:47.390Z,12.87
2017-11-12T02:51:15.700Z,12.50
2017-11-12T02:53:44.019Z,13.27
2017-11-12T02:56:12.318Z,13.43
2017-11-12T02:58:41.389Z,12.00
2017-11-12T03:01:09.710Z,12.40
2017-11-12T03:03:38.010Z,10.90
2017-11-12T03:06:06.347Z,12.23
2017-11-12T03:08:34.640Z,10.90
2017-11-12T03:11:02.962Z,9.57
2017-11-12T03:13:32.178Z,10.90
2017-11-12T03:16:00.507Z,9.73
2017-11-12T03:18:28.808Z,10.87
2017-11-12T03:20:57.153Z,11.33
2017-11-12T03:23:25.468Z,9.83
2017-11-12T03:25:53.782Z,9.73
2017-11-12T03:28:22.096Z,9.60
2017-11-12T03:30:50.403Z,8.90
2017-11-12T03:33:18.722Z,8.23
2017-11-12T03:35:47.036Z,8.97
2017-11-12T03:38:16.120Z,9.47
2017-11-12T03:40:44.419Z,8.20
2017-11-12T03:43:12.727Z,8.40
2017-11-12T03:45:41.089Z,8.63
2017-11-12T03:48:09.423Z,8.67
2017-11-12T03:50:37.786Z,9.10
2017-11-12T03:53:06.078Z,8.17
2017-11-12T03:55:34.402Z,7.77
2017-11-12T03:58:02.744Z,8.37
2017-11-12T04:00:31.101Z,8.33
2017-11-12T04:02:59.407Z,9.70
2017-11-12T04:05:27.729Z,8.10
2017-11-12T04:07:56.801Z,7.93
2017-11-12T04:10:25.126Z,8.93
2017-11-12T04:12:53.428Z,7.20
2017-11-12T04:15:21.771Z,8.97
2017-11-12T04:17:50.089Z,10.00
2017-11-12T04:20:18.418Z,8.33
2017-11-12T04:22:47.522Z,7.60
2017-11-12T04:25:15.834Z,8.30
2017-11-12T04:27:44.143Z,7.97
2017-11-12T04:30:12.464Z,7.60
2017-11-12T04:32:40.769Z,8.30
2017-11-12T04:35:09.096Z,7.77
2017-11-12T04:37:38.176Z,8.10
2017-11-12T04:40:07.279Z,6.30
2017-11-12T04:42:35.602Z,6.90
2017-11-12T04:45:03.911Z,6.97
2017-11-12T04:47:32.235Z,7.10
2017-11-12T04:50:00.546Z,6.00
2017-11-12T04:52:29.625Z,6.93
2017-11-12T04:54:57.940Z,6.50
2017-11-12T04:57:26.247Z,5.80
2017-11-12T04:59:55.341Z,6.20
2017-11-12T05:02:24.428Z,5.53
2017-11-12T05:04:52.742Z,5.70
2017-11-12T05:07:21.052Z,5.17
2017-11-12T05:09:49.385Z,5.20
2017-11-12T05:12:17.687Z,5.40
2017-11-12T05:14:46.018Z,4.37
2017-11-12T05:17:14.318Z,5.87
2017-11-12T05:19:42.635Z,5.90
2017-11-12T05:22:10.948Z,5.77
2017-11-12T05:24:40.028Z,4.80
2017-11-12T05:27:08.355Z,4.87
2017-11-12T05:29:36.662Z,4.60
2017-11-12T05:32:04.991Z,5.33
2017-11-12T05:34:33.317Z,4.90
2017-11-12T05:37:01.643Z,5.93
2017-11-12T05:39:30.719Z,6.00
2017-11-12T05:41:59.040Z,4.97
2017-11-12T05:44:27.352Z,4.93
2017-11-12T05:46:55.675Z,4.97
2017-11-12T05:49:23.983Z,4.77
2017-11-12T05:51:52.323Z,5.73
2017-11-12T05:54:21.394Z,3.60
2017-11-12T05:56:49.700Z,3.83
2017-11-12T05:59:18.765Z,3.20
2017-11-12T06:01:47.079Z,4.07
2017-11-12T06:04:15.389Z,3.37
2017-11-12T06:06:43.714Z,4.27
2017-11-12T06:09:12.789Z,3.73
2017-11-12T06:11:41.119Z,4.07
2017-11-12T06:14:09.411Z,3.80
2017-11-12T06:16:37.731Z,3.93
2017-11-12T06:19:06.031Z,4.03
2017-11-12T06:21:34.374Z,3.17
2017-11-12T06:24:02.687Z,4.30
2017-11-12T06:26:30.998Z,2.90
2017-11-12T06:28:59.307Z,2.87
2017-11-12T06:31:27.603Z,3.83
2017-11-12T06:33:56.676Z,3.60
2017-11-12T06:36:24.971Z,3.60
2017-11-12T06:38:53.292Z,3.50
2017-11-12T06:41:21.592Z,2.60
2017-11-12T06:43:49.906Z,3.20
2017-11-12T06:46:18.979Z,3.20
2017-11-12T06:48:47.291Z,3.43
2017-11-12T06:51:16.368Z,2.70
2017-11-12T06:53:45.459Z,3.00
2017-11-12T06:56:13.761Z,3.50
2017-11-12T06:58:42.067Z,3.23
2017-11-12T07:01:10.445Z,3.63
2017-11-12T07:03:38.753Z,2.67
2017-11-12T07:06:07.058Z,3.60
2017-11-12T07:08:36.154Z,2.80
2017-11-12T07:11:05.222Z,3.43
2017-11-12T07:13:33.533Z,3.70
2017-11-12T07:16:02.613Z,3.43
2017-11-12T07:18:31.698Z,3.50
2017-11-12T07:20:59.998Z,3.33
2017-11-12T07:23:29.072Z,3.70
2017-11-12T07:25:57.394Z,3.30
2017-11-12T07:28:25.709Z,2.50
2017-11-12T07:30:54.015Z,2.90
2017-11-12T07:33:22.324Z,2.70
2017-11-12T07:35:50.623Z,2.63
2017-11-12T07:38:18.926Z,2.87
2017-11-12T07:40:47.222Z,2.90
2017-11-12T07:43:16.291Z,2.70
2017-11-12T07:45:44.591Z,2.63
2017-11-12T07:48:12.897Z,3.17
2017-11-12T07:50:41.205Z,2.57
2017-11-12T07:53:09.549Z,2.63
2017-11-12T07:55:37.869Z,3.13
2017-11-12T07:58:06.164Z,2.90
2017-11-12T08:00:34.466Z,2.80
2017-11-12T08:03:03.550Z,3.03
2017-11-12T08:05:32.614Z,3.60
2017-11-12T08:08:00.918Z,2.67
2017-11-12T08:10:29.238Z,3.10
2017-11-12T08:12:57.543Z,2.80
2017-11-12T08:15:25.891Z,3.33
2017-11-12T08:17:54.179Z,3.20
2017-11-12T08:20:22.479Z,3.30
2017-11-12T08:22:50.835Z,2.63
2017-11-12T08:25:19.153Z,3.20
2017-11-12T08:27:47.450Z,3.27
2017-11-12T08:30:16.523Z,3.50
2017-11-12T08:32:44.818Z,3.80
2017-11-12T08:35:13.888Z,3.43
2017-11-12T08:37:42.187Z,3.50
2017-11-12T08:40:11.270Z,3.27
2017-11-12T08:42:39.582Z,3.70
2017-11-12T08:45:07.897Z,4.10
2017-11-12T08:47:36.204Z,3.97
2017-11-12T08:50:05.283Z,4.20
2017-11-12T08:52:33.585Z,3.63
2017-11-12T08:55:02.676Z,4.60
2017-11-12T08:57:30.989Z,3.67
2017-11-12T08:59:59.311Z,4.00
2017-11-12T09:02:27.611Z,4.00
2017-11-12T09:04:56.704Z,3.70
2017-11-12T09:07:25.004Z,3.50
2017-11-12T09:09:53.320Z,3.07
2017-11-12T09:12:21.607Z,4.27
2017-11-12T09:14:50.689Z,3.87
2017-11-12T09:17:18.997Z,4.07
2017-11-12T09:19:47.311Z,4.23
2017-11-12T09:22:15.619Z,4.73
2017-11-12T09:24:43.928Z,3.60
2017-11-12T09:27:12.246Z,3.47
2017-11-12T09:29:40.583Z,3.97
2017-11-12T09:32:08.874Z,4.20
2017-11-12T09:34:37.167Z,3.70
2017-11-12T09:37:06.259Z,3.93
2017-11-12T09:39:35.328Z,3.90
2017-11-12T09:42:03.632Z,4.50
2017-11-12T09:44:32.699Z,4.70
2017-11-12T09:47:01.005Z,5.13
2017-11-12T09:49:30.084Z,5.47
2017-11-12T09:51:58.420Z,4.93
2017-11-12T09:54:26.723Z,6.23
2017-11-12T09:56:55.045Z,5.00
2017-11-12T09:59:23.374Z,4.53
2017-11-12T10:01:51.683Z,4.77
2017-11-12T10:04:20.752Z,5.63
2017-11-12T10:06:49.069Z,5.53
2017-11-12T10:09:17.377Z,5.60
2017-11-12T10:11:45.690Z,5.80
2017-11-12T10:14:14.782Z,5.60
2017-11-12T10:16:43.098Z,5.80
2017-11-12T10:19:11.393Z,5.23
2017-11-12T10:21:39.695Z,5.13
2017-11-12T10:24:08.012Z,4.83
2017-11-12T10:26:37.084Z,5.43
2017-11-12T10:29:05.387Z,5.13
2017-11-12T10:31:34.462Z,4.20
2017-11-12T10:34:02.760Z,4.60
2017-11-12T10:36:31.831Z,3.93
2017-11-12T10:39:00.132Z,4.23
2017-11-12T10:41:29.198Z,4.30
2017-11-12T10:43:57.499Z,5.30
2017-11-12T10:46:26.568Z,4.60
2017-11-12T10:48:54.853Z,3.97
2017-11-12T10:51:23.155Z,3.97
2017-11-12T10:53:52.214Z,4.33
2017-11-12T10:56:20.526Z,4.10
2017-11-12T10:58:49.585Z,4.27
2017-11-12T11:01:17.899Z,4.20
2017-11-12T11:03:46.959Z,4.30
2017-11-12T11:06:15.293Z,4.20
2017-11-12T11:08:43.620Z,5.23
2017-11-12T11:11:11.947Z,5.03
2017-11-12T11:13:40.271Z,4.50
2017-11-12T11:16:08.588Z,4.50
2017-11-12T11:18:36.892Z,3.80
2017-11-12T11:21:05.222Z,4.43
2017-11-12T11:23:35.337Z,4.00
2017-11-12T11:26:03.688Z,3.83
2017-11-12T11:28:32.026Z,4.00
2017-11-12T11:31:00.338Z,3.57
2017-11-12T11:33:28.630Z,3.80
2017-11-12T11:35:56.954Z,3.50
2017-11-12T11:38:25.272Z,4.13
2017-11-12T11:40:53.613Z,4.47
2017-11-12T11:43:21.952Z,3.53
2017-11-12T11:45:50.259Z,3.97
2017-11-12T11:48:18.561Z,3.70
2017-11-12T11:50:46.881Z,4.10
2017-11-12T11:53:15.213Z,3.17
2017-11-12T11:55:43.511Z,4.80
2017-11-12T11:58:11.812Z,3.40
2017-11-12T12:00:40.176Z,3.63
2017-11-12T12:03:08.472Z,3.13
2017-11-12T12:05:36.770Z,3.57
2017-11-12T12:08:05.143Z,3.97
2017-11-12T12:10:34.287Z,4.10
2017-11-12T12:13:02.616Z,4.60
2017-11-12T12:15:31.679Z,3.83
2017-11-12T12:18:00.106Z,4.17
2017-11-12T12:20:28.432Z,5.10
2017-11-12T12:22:56.789Z,3.97
2017-11-12T12:25:25.128Z,3.90
2017-11-12T12:27:53.466Z,4.50
2017-11-12T12:30:21.782Z,4.27
2017-11-12T12:32:50.930Z,4.40
2017-11-12T12:35:19.239Z,4.80
2017-11-12T12:37:47.558Z,4.40
2017-11-12T12:40:15.885Z,5.93
2017-11-12T12:42:44.273Z,3.93
2017-11-12T12:45:13.386Z,5.70
2017-11-12T12:47:42.496Z,5.00
2017-11-12T12:50:10.838Z,4.83
2017-11-12T12:52:39.287Z,4.63
2017-11-12T12:55:07.621Z,4.70
2017-11-12T12:57:35.950Z,5.20
2017-11-12T13:00:04.271Z,5.67
2017-11-12T13:02:33.378Z,5.10
2017-11-12T13:05:01.684Z,4.07
2017-11-12T13:07:30.062Z,5.10
2017-11-12T13:09:58.376Z,9.13
2017-11-12T13:12:26.687Z,5.13
2017-11-12T13:14:55.746Z,6.20
2017-11-12T13:17:24.081Z,5.20
2017-11-12T13:19:52.380Z,5.27
2017-11-12T13:22:20.738Z,5.47
2017-11-12T13:24:49.044Z,5.83
2017-11-12T13:27:17.366Z,5.20
2017-11-12T13:29:46.461Z,5.27
2017-11-12T13:32:15.534Z,4.97
2017-11-12T13:34:43.827Z,6.43
2017-11-12T13:37:12.890Z,5.00
2017-11-12T13:39:41.201Z,5.13
2017-11-12T13:42:09.516Z,5.10
2017-11-12T13:44:37.816Z,6.20
2017-11-12T13:47:06.155Z,4.77
2017-11-12T13:49:34.477Z,6.10
2017-11-12T13:52:02.783Z,6.27
2017-11-12T13:54:31.853Z,5.27
2017-11-12T13:57:00.153Z,7.00
2017-11-12T13:59:29.267Z,6.43
2017-11-12T14:01:57.554Z,6.20
2017-11-12T14:04:25.863Z,6.80
2017-11-12T14:06:54.163Z,7.23
2017-11-12T14:09:22.493Z,7.03
2017-11-12T14:11:50.795Z,6.47
2017-11-12T14:14:19.146Z,6.83
2017-11-12T14:16:47.451Z,5.93
2017-11-12T14:19:15.785Z,7.60
2017-11-12T14:21:44.097Z,8.20
2017-11-12T14:24:13.176Z,7.90
2017-11-12T14:26:41.474Z,8.20
2017-11-12T14:29:09.797Z,7.03
2017-11-12T14:31:38.876Z,7.63
2017-11-12T14:34:07.981Z,7.20
2017-11-12T14:36:37.061Z,8.37
2017-11-12T14:39:05.379Z,7.73
2017-11-12T14:41:33.674Z,8.40
2017-11-12T14:44:02.045Z,8.00
2017-11-12T14:46:30.372Z,8.37
2017-11-12T14:48:58.767Z,8.67
2017-11-12T14:51:27.874Z,8.50
2017-11-12T14:53:56.261Z,8.67
2017-11-12T14:56:24.656Z,9.07
2017-11-12T14:58:52.991Z,8.57
2017-11-12T15:01:21.391Z,7.23
2017-11-12T15:03:49.749Z,8.53
2017-11-12T15:06:18.064Z,9.70
2017-11-12T15:08:46.428Z,7.73
2017-11-12T15:11:14.824Z,9.10
2017-11-12T15:13:43.233Z,8.23
2017-11-12T15:16:11.614Z,8.00
2017-11-12T15:18:39.987Z,8.90
2017-11-12T15:21:08.298Z,8.73
2017-11-12T15:23:37.624Z,8.30
2017-11-12T15:26:05.949Z,8.63
2017-11-12T15:28:34.265Z,9.53
2017-11-12T15:31:03.342Z,9.20
2017-11-12T15:33:31.654Z,8.70
2017-11-12T15:35:59.966Z,8.40
2017-11-12T15:38:28.274Z,7.97
2017-11-12T15:40:57.412Z,9.27
2017-11-12T15:43:25.720Z,8.10
2017-11-12T15:45:54.047Z,9.40
2017-11-12T15:48:23.125Z,8.93
2017-11-12T15:50:52.242Z,8.50
2017-11-12T15:53:21.308Z,9.53
2017-11-12T15:55:49.628Z,8.90
2017-11-12T15:58:17.944Z,10.33
2017-11-12T16:00:46.273Z,11.10
2017-11-12T16:03:14.579Z,9.90
2017-11-12T16:05:42.965Z,11.37
2017-11-12T16:08:11.277Z,9.00
2017-11-12T16:10:39.587Z,9.73
2017-11-12T16:13:07.901Z,10.97
2017-11-12T16:15:36.228Z,11.70
2017-11-12T16:18:05.299Z,11.30
2017-11-12T16:20:33.612Z,11.57
2017-11-12T16:23:01.918Z,10.83
2017-11-12T16:25:30.240Z,10.93
2017-11-12T16:27:58.551Z,13.63
2017-11-12T16:30:26.882Z,15.43
2017-11-12T16:32:55.205Z,16.07
2017-11-12T16:35:23.522Z,16.40
2017-11-12T16:37:51.833Z,16.27
2017-11-12T16:40:20.918Z,15.63
2017-11-12T16:42:49.227Z,14.80
2017-11-12T16:45:17.548Z,16.30
2017-11-12T16:47:45.861Z,18.23
2017-11-12T16:50:14.952Z,17.50
2017-11-12T16:52:44.034Z,15.93
2017-11-12T16:55:12.349Z,15.03
2017-11-12T16:57:40.670Z,15.87
2017-11-12T17:00:08.996Z,16.77
2017-11-12T17:02:37.308Z,17.10
2017-11-12T17:05:05.610Z,15.80
2017-11-12T17:07:33.927Z,15.03
2017-11-12T17:10:03.004Z,13.50
2017-11-12T17:12:31.390Z,12.23
2017-11-12T17:15:00.463Z,21.43
2017-11-12T17:17:28.835Z,14.80
2017-11-12T17:19:57.151Z,15.60
2017-11-12T17:22:26.226Z,14.23
2017-11-12T17:24:54.534Z,14.77
2017-11-12T17:27:22.860Z,31.87
2017-11-12T17:29:51.187Z,23.30
2017-11-12T17:32:19.533Z,14.30
2017-11-12T17:34:47.848Z,16.40
2017-11-12T17:37:16.169Z,15.50
2017-11-12T17:39:44.484Z,13.33
2017-11-12T17:42:13.569Z,12.10
2017-11-12T17:44:41.871Z,13.50
2017-11-12T17:47:10.178Z,13.40
2017-11-12T17:49:38.489Z,14.50
2017-11-12T17:52:06.811Z,13.87
2017-11-12T17:54:35.102Z,13.20
2017-11-12T17:57:03.430Z,15.07
2017-11-12T17:59:32.529Z,14.87
2017-11-12T18:02:01.627Z,16.70
2017-11-12T18:04:30.711Z,14.50
2017-11-12T18:06:59.032Z,46.00
2017-11-12T18:09:27.341Z,20.80
2017-11-12T18:11:55.712Z,17.50
2017-11-12T18:14:24.024Z,15.80
2017-11-12T18:16:52.358Z,15.33
2017-11-12T18:19:20.691Z,15.20
2017-11-12T18:21:49.027Z,15.17
2017-11-12T18:24:17.340Z,18.77
2017-11-12T18:26:46.427Z,16.37
2017-11-12T18:29:14.722Z,19.47
2017-11-12T18:31:43.811Z,18.30
2017-11-12T18:34:12.914Z,17.43
2017-11-12T18:36:41.997Z,19.97
2017-11-12T18:39:11.101Z,20.73
2017-11-12T18:41:40.168Z,21.33
2017-11-12T18:44:08.494Z,19.90
2017-11-12T18:46:36.805Z,20.50
2017-11-12T18:49:05.129Z,20.00
2017-11-12T18:51:34.216Z,21.90
2017-11-12T18:54:03.285Z,20.27
2017-11-12T18:56:41.486Z,19.40
2017-11-12T18:59:11.090Z,17.53
2017-11-12T19:01:49.282Z,10.27
2017-11-12T19:04:23.071Z,11.33
2017-11-12T19:06:56.737Z,8.80
2017-11-12T19:09:40.708Z,8.17
2017-11-12T19:12:09.349Z,8.03
2017-11-12T19:14:37.664Z,8.67
2017-11-12T19:17:09.070Z,7.30
2017-11-12T19:19:47.612Z,8.40
2017-11-12T19:22:17.062Z,7.57
2017-11-12T19:25:01.022Z,9.50
2017-11-12T19:27:30.225Z,8.87
2017-11-12T19:29:59.638Z,8.00
2017-11-12T19:32:27.951Z,9.40
2017-11-12T19:34:57.034Z,8.70
2017-11-12T19:37:26.126Z,10.50
2017-11-12T19:39:54.447Z,9.67
2017-11-12T19:42:22.773Z,10.87
2017-11-12T19:44:51.896Z,11.10
2017-11-12T19:47:21.103Z,11.20
2017-11-12T19:49:49.443Z,12.47
2017-11-12T19:52:17.768Z,10.60
2017-11-12T19:54:46.105Z,12.97
2017-11-12T19:57:14.421Z,12.03
2017-11-12T19:59:42.743Z,12.50
2017-11-12T20:02:11.044Z,12.40
2017-11-12T20:04:39.360Z,12.60
2017-11-12T20:07:08.148Z,12.80
2017-11-12T20:09:36.458Z,11.90
2017-11-12T20:12:04.783Z,12.23
2017-11-12T20:14:33.138Z,12.57
2017-11-12T20:17:02.240Z,13.60
2017-11-12T20:19:30.570Z,11.40
2017-11-12T20:21:58.884Z,12.90
2017-11-12T20:24:27.207Z,13.23
2017-11-12T20:26:55.507Z,12.80
2017-11-12T20:29:23.819Z,12.23
2017-11-12T20:31:52.899Z,12.63
2017-11-12T20:34:21.984Z,13.13
2017-11-12T20:36:50.292Z,13.27
2017-11-12T20:39:19.380Z,14.50
2017-11-12T20:41:47.683Z,11.80
2017-11-12T20:44:16.756Z,10.90
2017-11-12T20:46:45.078Z,11.60
2017-11-12T20:49:13.392Z,10.77
2017-11-12T20:51:41.705Z,11.70
2017-11-12T20:54:10.792Z,9.07
2017-11-12T20:56:39.858Z,8.60
2017-11-12T20:59:08.167Z,8.40
2017-11-12T21:01:37.245Z,8.67
2017-11-12T21:04:06.334Z,8.60
2017-11-12T21:06:34.670Z,6.97
2017-11-12T21:09:02.980Z,7.50
2017-11-12T21:11:31.274Z,6.93
2017-11-12T21:13:59.586Z,7.07
2017-11-12T21:16:27.886Z,6.70
2017-11-12T21:18:56.194Z,6.77
2017-11-12T21:24:36.215Z,6.27
2017-11-12T21:27:09.973Z,6.00
2017-11-12T21:29:38.307Z,6.53
2017-11-12T21:32:07.882Z,6.23
2017-11-12T21:34:54.484Z,6.63
2017-11-12T21:37:29.022Z,6.50
2017-11-12T21:39:58.085Z,5.50
2017-11-12T21:42:26.384Z,5.90
2017-11-12T21:44:55.479Z,5.37
2017-11-12T21:47:24.570Z,6.10
2017-11-12T21:49:52.881Z,6.80
2017-11-12T21:52:21.182Z,4.93
2017-11-12T21:54:49.487Z,5.67
2017-11-12T21:57:17.800Z,4.30
2017-11-12T21:59:46.111Z,3.80
2017-11-12T22:02:14.427Z,4.10
2017-11-12T22:04:42.776Z,4.00
2017-11-12T22:07:11.082Z,4.30
2017-11-12T22:09:40.183Z,5.17
2017-11-12T22:12:09.254Z,4.60
2017-11-12T22:14:37.566Z,5.80
2017-11-12T22:17:06.652Z,6.27
2017-11-12T22:19:35.711Z,7.73
2017-11-12T22:22:04.020Z,8.07
2017-11-12T22:24:32.311Z,10.00
2017-11-12T22:27:01.390Z,8.77
2017-11-12T22:29:29.704Z,10.23
2017-11-12T22:31:58.011Z,9.43
2017-11-12T22:34:26.320Z,9.33
2017-11-12T22:36:55.398Z,9.73
2017-11-12T22:39:23.733Z,10.03
2017-11-12T22:41:52.164Z,8.83
2017-11-12T22:44:20.463Z,8.30
2017-11-12T22:46:49.542Z,10.20
2017-11-12T22:49:17.834Z,8.23
2017-11-12T22:51:46.910Z,8.23
2017-11-12T22:54:15.211Z,7.60
2017-11-12T22:56:44.283Z,8.00
2017-11-12T22:59:12.608Z,6.47
2017-11-12T23:01:40.920Z,7.00
2017-11-12T23:04:09.219Z,7.27
2017-11-12T23:06:37.526Z,6.80
2017-11-12T23:09:05.815Z,6.73
2017-11-12T23:11:34.133Z,7.27
2017-11-12T23:14:02.434Z,6.17
2017-11-12T23:16:30.753Z,7.10
2017-11-12T23:18:59.045Z,6.07
2017-11-12T23:21:27.352Z,6.00
2017-11-12T23:23:55.662Z,7.30
2017-11-12T23:26:23.980Z,8.70
2017-11-12T23:28:52.278Z,8.40
2017-11-12T23:31:20.582Z,7.60
2017-11-12T23:33:49.649Z,9.80
2017-11-12T23:36:17.965Z,10.10
2017-11-12T23:38:47.033Z,9.47
2017-11-12T23:41:15.342Z,9.93
2017-11-12T23:43:43.668Z,9.43
2017-11-12T23:46:11.977Z,9.30
2017-11-12T23:48:41.053Z,11.30
2017-11-12T23:51:09.380Z,11.70
2017-11-12T23:53:37.686Z,11.63
2017-11-12T23:56:06.017Z,9.60
2017-11-12T23:58:34.321Z,10.07
